Time;durP1;ratioP1;P1;durP2;ratioP2;P2;SDS_P1;SDS_P2;PMS_P1;PMS_P2;Temp;Humidity;BMP_temperature;BMP_pressure;BME280_temperature;BME280_humidity;BME280_pressure;Samples;Min_cycle;Max_cycle;Signal;HPM_P1;HPM_P2
2023/08/28 00:02:17;;;;;;;3.22;1.40;;;17.60;99.90;;;;;;5027288;28;20029;-82
2023/08/28 00:04:43;;;;;;;4.68;1.60;;;17.60;99.90;;;;;;5028610;28;20076;-82
2023/08/28 00:07:09;;;;;;;3.83;1.17;;;17.60;99.90;;;;;;5028175;28;20424;-81
2023/08/28 00:09:35;;;;;;;1.67;1.13;;;17.60;99.90;;;;;;5027747;28;20029;-83
2023/08/28 00:12:04;;;;;;;5.20;1.30;;;17.60;99.90;;;;;;5027334;28;20021;-82
2023/08/28 00:14:29;;;;;;;3.00;1.20;;;17.70;99.90;;;;;;5027783;28;20496;-82
2023/08/28 00:16:55;;;;;;;3.27;1.43;;;17.70;99.90;;;;;;4990788;28;1072433;-83
2023/08/28 00:19:20;;;;;;;1.23;1.13;;;17.70;99.90;;;;;;5028661;28;20272;-82
2023/08/28 00:21:47;;;;;;;5.82;1.55;;;17.70;99.90;;;;;;5028648;28;20021;-82
2023/08/28 00:24:13;;;;;;;4.72;1.33;;;17.70;99.90;;;;;;5029321;28;20041;-82
2023/08/28 00:26:38;;;;;;;2.15;1.08;;;17.60;99.90;;;;;;5028689;28;20024;-82
2023/08/28 00:29:04;;;;;;;3.50;1.42;;;17.60;99.90;;;;;;5028212;28;20030;-82
2023/08/28 00:31:29;;;;;;;3.17;1.30;;;17.70;99.90;;;;;;5028711;28;20488;-83
2023/08/28 00:33:55;;;;;;;3.22;1.20;;;17.70;99.90;;;;;;5028457;28;20034;-81
2023/08/28 00:36:21;;;;;;;3.80;1.27;;;17.70;99.90;;;;;;5010879;28;20032;-83
2023/08/28 00:38:46;;;;;;;3.55;1.13;;;17.70;99.90;;;;;;5028359;28;20036;-82
2023/08/28 00:41:12;;;;;;;4.55;1.40;;;17.70;99.90;;;;;;5030775;28;20026;-82
2023/08/28 00:43:38;;;;;;;2.50;1.10;;;17.70;99.90;;;;;;5031968;28;20452;-82
2023/08/28 00:46:05;;;;;;;4.28;1.30;;;17.70;99.90;;;;;;5013900;28;20021;-81
2023/08/28 00:48:32;;;;;;;2.60;1.30;;;17.70;99.90;;;;;;5029711;28;20029;-83
2023/08/28 00:51:00;;;;;;;3.95;1.35;;;17.70;99.90;;;;;;5029831;28;20105;-81
2023/08/28 00:53:26;;;;;;;3.80;1.45;;;17.60;99.90;;;;;;5025481;28;20061;-82
2023/08/28 00:55:53;;;;;;;6.68;1.50;;;17.70;99.90;;;;;;5030196;28;20065;-82
2023/08/28 00:58:18;;;;;;;2.63;1.08;;;17.70;99.90;;;;;;5013787;28;20506;-83
2023/08/28 01:00:44;;;;;;;4.70;1.58;;;17.60;99.90;;;;;;5013464;28;20596;-82
2023/08/28 01:03:09;;;;;;;3.75;1.27;;;17.70;99.90;;;;;;5031186;28;20037;-83
2023/08/28 01:06:04;;;;;;;2.65;1.30;;;17.60;99.90;;;;;;5031234;28;20523;-82
2023/08/28 01:08:54;;;;;;;5.95;1.73;;;17.60;99.90;;;;;;4995007;28;20039;-82
2023/08/28 01:12:14;;;;;;;3.15;1.20;;;17.60;99.90;;;;;;5031568;28;20022;-81
2023/08/28 01:15:01;;;;;;;4.55;1.58;;;17.60;99.90;;;;;;4973482;28;20038;-82
2023/08/28 01:17:29;;;;;;;2.47;1.30;;;17.60;99.90;;;;;;5010792;28;20393;-81
2023/08/28 01:19:57;;;;;;;4.05;1.30;;;17.60;99.90;;;;;;5030819;28;20268;-82
2023/08/28 01:22:30;;;;;;;2.85;1.48;;;17.60;99.90;;;;;;5030928;28;20036;-83
2023/08/28 01:25:08;;;;;;;2.75;1.38;;;17.60;99.90;;;;;;5013194;28;20037;-82
2023/08/28 01:27:35;;;;;;;4.70;1.35;;;17.60;99.90;;;;;;5031139;28;20095;-82
2023/08/28 01:30:08;;;;;;;3.80;1.42;;;17.60;99.90;;;;;;5013293;28;20389;-85
2023/08/28 01:32:34;;;;;;;4.80;1.42;;;17.60;99.90;;;;;;5031187;28;20021;-82
2023/08/28 01:35:02;;;;;;;2.80;1.48;;;17.70;99.90;;;;;;5031076;28;20036;-82
2023/08/28 01:37:35;;;;;;;3.17;1.40;;;17.60;99.90;;;;;;5030492;28;20362;-81
2023/08/28 01:40:05;;;;;;;5.95;1.42;;;17.60;99.90;;;;;;5030751;28;20080;-82
2023/08/28 01:42:33;;;;;;;3.20;1.50;;;17.70;99.90;;;;;;5030657;28;20049;-81
2023/08/28 01:45:00;;;;;;;3.63;1.43;;;17.60;99.90;;;;;;5030572;28;20021;-83
2023/08/28 01:47:27;;;;;;;5.20;1.33;;;17.60;99.90;;;;;;5013080;28;20032;-82
2023/08/28 01:49:55;;;;;;;2.75;1.40;;;17.60;99.90;;;;;;5030819;28;20029;-82
2023/08/28 01:52:21;;;;;;;2.78;1.50;;;17.60;99.90;;;;;;5029698;28;20029;-82
2023/08/28 01:54:47;;;;;;;6.00;1.52;;;17.60;99.90;;;;;;5022235;28;20033;-83
2023/08/28 01:57:12;;;;;;;2.65;1.40;;;17.60;99.90;;;;;;5030447;28;20053;-82
2023/08/28 01:59:38;;;;;;;3.25;1.52;;;17.60;99.90;;;;;;5030317;28;20111;-82
2023/08/28 02:02:03;;;;;;;3.55;1.48;;;17.60;99.90;;;;;;5027244;28;20417;-83
2023/08/28 02:04:29;;;;;;;2.45;1.33;;;17.60;99.90;;;;;;5017360;28;20118;-83
2023/08/28 02:06:55;;;;;;;2.22;1.40;;;17.60;99.90;;;;;;5028575;28;20037;-82
2023/08/28 02:09:20;;;;;;;2.47;1.70;;;17.60;99.90;;;;;;5030110;28;20091;-81
2023/08/28 02:11:46;;;;;;;2.58;1.33;;;17.60;99.90;;;;;;5030578;28;20120;-82
2023/08/28 02:14:11;;;;;;;3.75;1.60;;;17.60;99.90;;;;;;5027954;28;20036;-82
2023/08/28 02:16:40;;;;;;;4.57;1.55;;;17.60;99.90;;;;;;5027779;28;20033;-82
2023/08/28 02:19:05;;;;;;;1.73;1.40;;;17.60;99.90;;;;;;5029943;28;20047;-83
2023/08/28 02:21:31;;;;;;;3.85;1.90;;;17.60;99.90;;;;;;5027371;28;20441;-82
2023/08/28 02:23:56;;;;;;;4.53;1.70;;;17.60;99.90;;;;;;5010262;28;20044;-84
2023/08/28 02:26:22;;;;;;;2.22;1.55;;;17.50;99.90;;;;;;4993820;28;20124;-82
2023/08/28 02:28:48;;;;;;;2.65;1.50;;;17.60;99.90;;;;;;5030783;28;20029;-83
2023/08/28 02:31:13;;;;;;;3.50;1.40;;;17.60;99.90;;;;;;5029919;28;20021;-81
2023/08/28 02:33:39;;;;;;;2.75;1.48;;;17.70;99.90;;;;;;5029839;28;20067;-82
2023/08/28 02:36:05;;;;;;;1.77;1.30;;;17.70;99.90;;;;;;5029950;28;20044;-82
2023/08/28 02:38:30;;;;;;;4.13;1.60;;;17.60;99.90;;;;;;5029704;28;20029;-81
2023/08/28 02:41:04;;;;;;;4.10;1.50;;;17.60;99.90;;;;;;5029676;28;20018;-82
2023/08/28 02:43:30;;;;;;;5.72;1.42;;;17.60;99.90;;;;;;5029180;28;20442;-82
2023/08/28 02:45:55;;;;;;;1.63;1.35;;;17.60;99.90;;;;;;5029880;28;20022;-83
2023/08/28 02:48:21;;;;;;;4.00;1.50;;;17.60;99.90;;;;;;5030582;28;20037;-83
2023/08/28 02:50:50;;;;;;;5.38;1.60;;;17.60;99.90;;;;;;5029605;28;20104;-83
2023/08/28 02:53:16;;;;;;;2.25;1.52;;;17.60;99.90;;;;;;5029656;28;20037;-83
2023/08/28 02:55:42;;;;;;;2.53;1.48;;;17.70;99.90;;;;;;5029573;28;20017;-82
2023/08/28 02:58:09;;;;;;;4.47;1.60;;;17.70;99.90;;;;;;5029583;28;20060;-84
2023/08/28 03:00:35;;;;;;;3.65;1.60;;;17.60;99.90;;;;;;5029293;28;20485;-82
2023/08/28 03:03:01;;;;;;;8.40;1.55;;;17.70;99.90;;;;;;5029181;28;20029;-83
2023/08/28 03:05:27;;;;;;;2.50;1.42;;;17.70;99.90;;;;;;5029218;28;20028;-81
2023/08/28 03:07:53;;;;;;;3.85;1.52;;;17.60;99.90;;;;;;5030277;28;20029;-82
2023/08/28 03:10:19;;;;;;;4.57;1.67;;;17.60;99.90;;;;;;5030003;28;20021;-82
2023/08/28 03:12:44;;;;;;;2.88;1.30;;;17.70;99.90;;;;;;5029334;28;20021;-82
2023/08/28 03:15:11;;;;;;;3.35;1.65;;;17.70;99.90;;;;;;5029109;28;20481;-85
2023/08/28 03:17:37;;;;;;;2.22;1.30;;;17.70;99.90;;;;;;5028328;28;20436;-83
2023/08/28 03:20:03;;;;;;;2.67;1.45;;;17.70;99.90;;;;;;5028305;28;20508;-84
2023/08/28 03:22:29;;;;;;;4.70;1.70;;;17.70;99.90;;;;;;5025083;28;23067;-83
2023/08/28 03:24:55;;;;;;;5.07;1.60;;;17.70;99.90;;;;;;5028706;28;20520;-81
2023/08/28 03:27:21;;;;;;;2.33;1.70;;;17.70;99.90;;;;;;5027962;28;20021;-82
2023/08/28 03:29:47;;;;;;;3.85;1.60;;;17.70;99.90;;;;;;5028096;28;20095;-83
2023/08/28 03:32:13;;;;;;;6.45;1.65;;;17.60;99.90;;;;;;5028594;28;20021;-84
2023/08/28 03:34:38;;;;;;;3.30;1.45;;;17.50;99.90;;;;;;5027975;28;20121;-82
2023/08/28 03:37:04;;;;;;;4.55;1.58;;;17.50;99.90;;;;;;5027928;28;20017;-84
2023/08/28 03:39:29;;;;;;;3.22;1.63;;;17.60;99.90;;;;;;5028916;28;20524;-82
2023/08/28 03:41:55;;;;;;;3.45;1.55;;;17.60;99.90;;;;;;5026295;28;20026;-82
2023/08/28 03:44:21;;;;;;;1.77;1.40;;;17.60;99.90;;;;;;4992360;28;20386;-82
2023/08/28 03:46:46;;;;;;;4.20;1.45;;;17.60;99.90;;;;;;5009151;28;20088;-83
2023/08/28 03:49:12;;;;;;;9.80;1.70;;;17.60;99.90;;;;;;5009082;28;20083;-83
2023/08/28 03:51:37;;;;;;;2.58;1.30;;;17.70;99.90;;;;;;5012557;28;20013;-82
2023/08/28 03:54:09;;;;;;;4.15;1.58;;;17.70;99.90;;;;;;5028453;28;20554;-83
2023/08/28 03:56:35;;;;;;;4.55;1.50;;;17.60;99.90;;;;;;5028772;28;20021;-82
2023/08/28 03:59:00;;;;;;;3.92;1.70;;;17.60;99.90;;;;;;5028881;28;20116;-82
2023/08/28 04:01:26;;;;;;;4.07;1.85;;;17.70;99.90;;;;;;5029230;28;20025;-82
2023/08/28 04:03:52;;;;;;;2.75;1.60;;;17.70;99.90;;;;;;5029367;28;20116;-83
2023/08/28 04:06:17;;;;;;;4.43;1.60;;;17.70;99.90;;;;;;5028565;28;20017;-83
2023/08/28 04:08:43;;;;;;;3.53;1.33;;;17.60;99.90;;;;;;5028575;28;20041;-82
2023/08/28 04:11:08;;;;;;;4.90;1.58;;;17.60;99.90;;;;;;5028650;28;20029;-82
2023/08/28 04:13:34;;;;;;;4.75;1.70;;;17.70;99.90;;;;;;5011122;28;20052;-83
2023/08/28 04:16:00;;;;;;;2.92;1.65;;;17.60;99.90;;;;;;5012491;28;20025;-82
2023/08/28 04:18:25;;;;;;;3.50;1.45;;;17.60;99.90;;;;;;5032921;28;20404;-82
2023/08/28 04:20:51;;;;;;;2.90;1.48;;;17.70;99.90;;;;;;5032699;28;20022;-82
2023/08/28 04:23:17;;;;;;;4.43;1.80;;;17.70;99.90;;;;;;5032390;28;20661;-82
2023/08/28 04:25:43;;;;;;;3.63;1.35;;;17.70;99.90;;;;;;5032060;28;20493;-82
2023/08/28 04:28:08;;;;;;;6.55;1.80;;;17.60;99.90;;;;;;5032288;28;20064;-82
2023/08/28 04:30:34;;;;;;;5.40;1.70;;;17.60;99.90;;;;;;5032143;28;20021;-82
2023/08/28 04:32:59;;;;;;;3.22;1.73;;;17.60;99.90;;;;;;5032103;28;20477;-82
2023/08/28 04:35:25;;;;;;;2.90;1.60;;;17.70;99.90;;;;;;5032996;28;20034;-82
2023/08/28 04:37:51;;;;;;;4.03;1.60;;;17.50;99.90;;;;;;5032168;28;20022;-82
2023/08/28 04:40:16;;;;;;;3.67;1.48;;;17.60;99.90;;;;;;5030866;28;20378;-83
2023/08/28 04:42:42;;;;;;;2.25;1.38;;;17.50;99.90;;;;;;5029659;28;20037;-82
2023/08/28 04:45:08;;;;;;;1.55;1.30;;;17.40;99.90;;;;;;5030370;28;20033;-82
2023/08/28 04:47:33;;;;;;;3.72;1.27;;;17.40;99.90;;;;;;5030631;28;20025;-83
2023/08/28 04:49:59;;;;;;;4.88;1.50;;;17.40;99.90;;;;;;5029290;28;20037;-82
2023/08/28 04:52:24;;;;;;;5.45;1.70;;;17.30;99.90;;;;;;5013769;28;20489;-84
2023/08/28 04:54:50;;;;;;;3.33;1.13;;;17.30;99.90;;;;;;5030906;28;20036;-82
2023/08/28 04:57:16;;;;;;;3.40;1.20;;;17.30;99.90;;;;;;5031068;28;20112;-83
2023/08/28 04:59:41;;;;;;;4.15;1.17;;;17.30;99.90;;;;;;5029871;28;20017;-84
2023/08/28 05:02:07;;;;;;;5.55;1.50;;;17.20;99.90;;;;;;5030193;28;20576;-84
2023/08/28 05:04:32;;;;;;;4.05;1.20;;;17.20;99.90;;;;;;5013013;28;20048;-81
2023/08/28 05:06:58;;;;;;;4.28;1.42;;;17.20;99.90;;;;;;5032218;28;20084;-83
2023/08/28 05:09:23;;;;;;;4.20;1.90;;;17.10;99.90;;;;;;5010127;28;20033;-82
2023/08/28 05:11:49;;;;;;;5.70;1.40;;;17.10;99.90;;;;;;5011368;28;20241;-83
2023/08/28 05:14:15;;;;;;;1.80;1.10;;;17.10;99.90;;;;;;5012811;28;20486;-82
2023/08/28 05:16:40;;;;;;;2.25;1.30;;;17.10;99.90;;;;;;4997337;28;20040;-84
2023/08/28 05:19:06;;;;;;;5.32;1.20;;;17.00;99.90;;;;;;5021856;28;20079;-83
2023/08/28 05:21:32;;;;;;;2.17;1.20;;;17.00;99.90;;;;;;5018506;28;20025;-85
2023/08/28 05:23:58;;;;;;;5.18;1.40;;;17.00;99.90;;;;;;5013309;28;20042;-82
2023/08/28 05:26:23;;;;;;;2.13;1.17;;;17.00;99.90;;;;;;5011117;28;20109;-83
2023/08/28 05:28:49;;;;;;;3.03;1.20;;;17.00;99.90;;;;;;5011049;28;20068;-83
2023/08/28 05:31:15;;;;;;;4.45;1.40;;;16.90;99.90;;;;;;5011513;28;20045;-82
2023/08/28 05:33:40;;;;;;;5.45;1.20;;;17.00;99.90;;;;;;5038358;28;20095;-81
2023/08/28 05:36:06;;;;;;;2.05;1.20;;;17.00;99.90;;;;;;5037169;28;20104;-81
2023/08/28 05:38:33;;;;;;;4.93;1.23;;;16.80;99.90;;;;;;5029040;28;20042;-81
2023/08/28 05:40:59;;;;;;;4.88;1.05;;;16.90;99.90;;;;;;5011735;28;20510;-81
2023/08/28 05:43:24;;;;;;;1.63;1.00;;;16.90;99.90;;;;;;5026852;28;20072;-81
2023/08/28 05:45:50;;;;;;;3.60;1.40;;;16.90;99.90;;;;;;5029960;28;20022;-80
2023/08/28 05:48:16;;;;;;;6.85;1.42;;;16.90;99.90;;;;;;5002210;28;20045;-82
2023/08/28 05:50:48;;;;;;;2.35;1.10;;;16.90;99.90;;;;;;5018857;28;20018;-80
2023/08/28 05:53:13;;;;;;;1.10;1.00;;;16.90;99.90;;;;;;5030000;28;20026;-80
2023/08/28 05:55:39;;;;;;;3.17;1.38;;;16.90;99.90;;;;;;5013332;28;20080;-80
2023/08/28 05:58:04;;;;;;;4.40;1.20;;;17.00;99.90;;;;;;5023749;28;20030;-81
2023/08/28 06:00:30;;;;;;;2.88;1.10;;;16.90;99.90;;;;;;5026698;28;20057;-82
2023/08/28 06:02:56;;;;;;;3.80;1.30;;;17.00;99.90;;;;;;5026982;28;20425;-80
2023/08/28 06:05:22;;;;;;;5.18;1.15;;;17.00;99.90;;;;;;5022960;28;20021;-81
2023/08/28 06:07:47;;;;;;;4.57;1.15;;;17.00;99.90;;;;;;5020640;28;20030;-80
2023/08/28 06:10:17;;;;;;;2.78;1.10;;;17.00;99.90;;;;;;5021594;28;20501;-80
2023/08/28 06:12:44;;;;;;;4.70;1.10;;;17.00;99.90;;;;;;5024263;28;20022;-81
2023/08/28 06:15:11;;;;;;;2.45;1.20;;;17.00;99.90;;;;;;5026864;28;20520;-80
2023/08/28 06:17:36;;;;;;;4.25;1.20;;;17.00;99.90;;;;;;5037481;28;20028;-81
2023/08/28 06:20:04;;;;;;;6.32;1.33;;;17.00;99.90;;;;;;5021515;28;20030;-82
2023/08/28 06:22:30;;;;;;;1.95;1.10;;;17.10;99.90;;;;;;5010531;28;20064;-83
2023/08/28 06:24:55;;;;;;;3.58;1.30;;;17.20;99.90;;;;;;5015444;28;20498;-81
2023/08/28 06:27:22;;;;;;;4.20;1.10;;;17.30;99.90;;;;;;5029014;28;20017;-82
2023/08/28 06:29:48;;;;;;;4.78;1.00;;;17.30;99.90;;;;;;5020189;28;20025;-81
2023/08/28 06:32:13;;;;;;;4.45;1.10;;;17.40;99.90;;;;;;5028850;28;20464;-83
2023/08/28 06:34:39;;;;;;;3.22;1.10;;;17.40;99.90;;;;;;5026897;28;20029;-82
2023/08/28 06:37:04;;;;;;;2.45;0.88;;;17.50;99.90;;;;;;5029736;28;20025;-81
2023/08/28 06:39:31;;;;;;;2.95;0.95;;;17.50;99.90;;;;;;5029362;28;20151;-82
2023/08/28 06:41:56;;;;;;;3.10;1.00;;;17.50;99.90;;;;;;5024351;28;20022;-83
2023/08/28 06:44:22;;;;;;;2.90;1.08;;;17.60;99.90;;;;;;5008712;28;20524;-82
2023/08/28 06:46:47;;;;;;;4.10;1.20;;;17.50;99.90;;;;;;5009357;28;20080;-83
2023/08/28 06:49:13;;;;;;;2.72;1.20;;;17.60;99.90;;;;;;4995251;28;20381;-81
2023/08/28 06:51:39;;;;;;;2.63;0.95;;;17.60;99.90;;;;;;5029142;28;20083;-82
2023/08/28 06:54:04;;;;;;;2.95;0.95;;;17.60;99.90;;;;;;5029184;28;20025;-81
2023/08/28 06:56:30;;;;;;;2.72;1.10;;;17.60;99.90;;;;;;5029965;28;20040;-82
2023/08/28 06:58:56;;;;;;;3.90;1.02;;;17.60;99.90;;;;;;5029011;28;20488;-82
2023/08/28 07:01:22;;;;;;;1.85;1.00;;;17.60;99.90;;;;;;5028988;28;20116;-82
2023/08/28 07:03:47;;;;;;;2.90;1.35;;;17.60;99.90;;;;;;5028990;28;20068;-83
2023/08/28 07:06:13;;;;;;;2.40;1.40;;;17.60;99.90;;;;;;5011367;28;20025;-81
2023/08/28 07:08:39;;;;;;;5.05;1.15;;;17.70;99.90;;;;;;5010976;28;20064;-82
2023/08/28 07:11:04;;;;;;;2.60;1.42;;;17.70;99.90;;;;;;5011355;28;20029;-81
2023/08/28 07:13:30;;;;;;;2.97;1.20;;;17.70;99.90;;;;;;5010071;28;20047;-82
2023/08/28 07:15:56;;;;;;;2.85;1.00;;;17.70;99.90;;;;;;5027309;28;20022;-82
2023/08/28 07:18:22;;;;;;;2.40;0.77;;;17.70;99.90;;;;;;5027903;28;20454;-82
2023/08/28 07:20:47;;;;;;;5.03;1.08;;;17.60;99.90;;;;;;5027974;28;20037;-82
2023/08/28 07:23:13;;;;;;;1.85;0.70;;;17.60;99.90;;;;;;5026872;28;20045;-81
2023/08/28 07:25:38;;;;;;;4.32;0.82;;;17.70;99.90;;;;;;5028825;28;20474;-81
2023/08/28 07:28:06;;;;;;;5.90;1.10;;;17.80;99.90;;;;;;5029092;28;20025;-81
2023/08/28 07:30:31;;;;;;;0.95;0.70;;;17.80;99.90;;;;;;5023019;28;20078;-82
2023/08/28 07:32:57;;;;;;;2.45;1.02;;;17.90;99.90;;;;;;5028678;28;20033;-81
2023/08/28 07:35:23;;;;;;;6.05;1.10;;;18.00;99.90;;;;;;5028820;28;20384;-81
2023/08/28 07:37:48;;;;;;;6.15;0.82;;;17.90;99.90;;;;;;5028977;28;20036;-81
2023/08/28 07:40:15;;;;;;;5.05;1.00;;;17.90;99.90;;;;;;5026761;28;20144;-81
2023/08/28 07:42:40;;;;;;;2.55;1.02;;;17.80;99.90;;;;;;5027754;28;20454;-83
2023/08/28 07:45:07;;;;;;;1.25;0.70;;;17.90;99.90;;;;;;5028508;28;20049;-81
2023/08/28 07:47:32;;;;;;;3.60;1.00;;;17.90;99.90;;;;;;5011583;28;20032;-82
2023/08/28 07:49:58;;;;;;;2.20;1.02;;;18.10;99.90;;;;;;5028431;28;20026;-83
2023/08/28 07:52:23;;;;;;;2.70;0.93;;;18.20;99.90;;;;;;5032645;28;20044;-82
2023/08/28 07:54:49;;;;;;;1.35;0.85;;;18.30;99.90;;;;;;5032599;28;20175;-81
2023/08/28 07:57:14;;;;;;;2.72;1.02;;;18.40;99.90;;;;;;5032682;28;20029;-82
2023/08/28 07:59:40;;;;;;;2.67;1.10;;;18.50;99.90;;;;;;5032399;28;20025;-83
2023/08/28 08:02:07;;;;;;;2.67;1.00;;;18.50;99.90;;;;;;5032463;28;20079;-84
2023/08/28 08:04:33;;;;;;;2.88;0.98;;;18.70;99.90;;;;;;5033107;28;20029;-82
2023/08/28 08:07:00;;;;;;;2.05;1.17;;;18.70;99.90;;;;;;5033000;28;20026;-82
2023/08/28 08:09:26;;;;;;;2.47;1.02;;;18.50;99.90;;;;;;5014708;28;20392;-82
2023/08/28 08:11:52;;;;;;;3.00;0.98;;;18.70;99.90;;;;;;5032279;28;20504;-82
2023/08/28 08:14:17;;;;;;;2.72;1.20;;;18.80;99.90;;;;;;5031990;28;20079;-83
2023/08/28 08:16:43;;;;;;;5.80;0.95;;;18.80;99.90;;;;;;5032145;28;20037;-82
2023/08/28 08:19:09;;;;;;;1.00;0.90;;;18.80;99.90;;;;;;5034297;28;20079;-82
2023/08/28 08:21:36;;;;;;;2.40;1.08;;;18.80;99.90;;;;;;5032023;28;20025;-81
2023/08/28 08:24:01;;;;;;;6.53;1.05;;;18.90;99.90;;;;;;5031407;28;20558;-84
2023/08/28 08:26:28;;;;;;;1.60;1.30;;;18.80;99.90;;;;;;5035583;28;20031;-81
2023/08/28 08:28:54;;;;;;;3.83;1.73;;;18.90;99.90;;;;;;5020277;28;20039;-83
2023/08/28 08:31:20;;;;;;;2.83;1.10;;;19.20;99.90;;;;;;5022320;28;20018;-82
2023/08/28 08:33:45;;;;;;;3.53;1.20;;;19.40;99.90;;;;;;5025195;28;20029;-82
2023/08/28 08:36:14;;;;;;;2.78;1.02;;;19.50;99.90;;;;;;5021296;28;20018;-82
2023/08/28 08:38:40;;;;;;;3.10;0.98;;;19.50;99.90;;;;;;5021820;28;20064;-86
2023/08/28 08:41:08;;;;;;;3.95;1.20;;;19.50;99.90;;;;;;5036028;28;20026;-83
2023/08/28 08:43:34;;;;;;;;;;;19.50;99.90;;;;;;5032158;28;20477;-80
2023/08/28 08:46:07;;;;;;;4.13;1.20;;;19.50;99.90;;;;;;5032123;28;19936;-81
2023/08/28 08:48:36;;;;;;;1.60;0.85;;;19.30;99.90;;;;;;5032439;28;20029;-82
2023/08/28 08:51:04;;;;;;;2.70;1.27;;;19.30;99.90;;;;;;5023668;28;20045;-83
2023/08/28 08:53:46;;;;;;;2.25;1.08;;;19.50;99.90;;;;;;4999938;28;20045;-82
2023/08/28 08:56:18;;;;;;;2.95;1.25;;;19.60;99.90;;;;;;5021215;28;20497;-82
2023/08/28 08:58:45;;;;;;;2.72;1.40;;;19.70;99.90;;;;;;5020552;28;20505;-83
2023/08/28 09:01:11;;;;;;;3.25;1.23;;;19.70;99.90;;;;;;5018260;28;20026;-82
2023/08/28 09:03:42;;;;;;;1.65;1.17;;;19.90;99.90;;;;;;5020503;28;20440;-81
2023/08/28 09:06:08;;;;;;;1.60;1.20;;;20.00;99.90;;;;;;5030468;28;20515;-80
2023/08/28 09:08:42;;;;;;;2.03;1.20;;;19.90;99.90;;;;;;5031538;28;20100;-80
2023/08/28 09:11:08;;;;;;;1.65;0.90;;;19.90;99.90;;;;;;5031454;28;20018;-81
2023/08/28 09:13:43;;;;;;;2.47;1.20;;;19.90;99.90;;;;;;5031478;28;20120;-81
2023/08/28 09:16:09;;;;;;;1.63;1.30;;;19.90;99.90;;;;;;5030794;28;20543;-82
2023/08/28 09:18:35;;;;;;;2.95;1.35;;;20.10;99.90;;;;;;5013740;28;20033;-82
2023/08/28 09:21:11;;;;;;;2.47;1.40;;;20.30;99.90;;;;;;5031995;28;20546;-82
2023/08/28 09:23:45;;;;;;;3.20;1.30;;;20.60;99.90;;;;;;5030670;28;20124;-82
2023/08/28 09:26:16;;;;;;;2.80;1.35;;;20.70;99.90;;;;;;5031100;28;20029;-82
2023/08/28 09:28:42;;;;;;;3.95;1.45;;;20.70;99.90;;;;;;5030613;28;20051;-82
2023/08/28 09:31:07;;;;;;;3.17;1.58;;;20.60;99.90;;;;;;5030807;28;20389;-82
2023/08/28 09:33:46;;;;;;;1.98;1.38;;;20.50;99.90;;;;;;5026268;28;20076;-82
2023/08/28 09:36:20;;;;;;;4.30;1.60;;;20.50;99.90;;;;;;5010377;28;20025;-82
2023/08/28 09:38:46;;;;;;;6.03;1.50;;;20.30;99.90;;;;;;5010598;28;20018;-82
2023/08/28 09:41:12;;;;;;;2.47;1.63;;;20.20;99.90;;;;;;5028003;28;20087;-82
2023/08/28 09:43:38;;;;;;;2.88;1.50;;;20.20;99.90;;;;;;5030288;28;20041;-81
2023/08/28 09:46:05;;;;;;;6.00;2.03;;;20.00;99.90;;;;;;5031094;28;20017;-82
2023/08/28 09:48:35;;;;;;;2.47;1.52;;;20.10;99.90;;;;;;5034441;28;20029;-84
2023/08/28 09:51:06;;;;;;;4.72;2.13;;;20.30;99.90;;;;;;5012039;28;20021;-88
2023/08/28 09:53:33;;;;;;;6.05;2.22;;;20.40;99.90;;;;;;5001304;28;20030;-82
2023/08/28 09:55:59;;;;;;;7.75;2.15;;;20.40;99.90;;;;;;5020796;28;20063;-82
2023/08/28 09:58:27;;;;;;;3.58;2.00;;;20.40;99.90;;;;;;5020938;28;20305;-81
2023/08/28 10:00:56;;;;;;;7.18;2.20;;;20.50;99.90;;;;;;5019537;28;20029;-82
2023/08/28 10:03:22;;;;;;;4.20;2.08;;;20.60;99.90;;;;;;5018770;28;20041;-82
2023/08/28 10:05:51;;;;;;;5.53;2.20;;;20.60;99.90;;;;;;5023303;28;20026;-81
2023/08/28 10:08:17;;;;;;;5.97;2.30;;;20.60;99.90;;;;;;5018994;28;20489;-82
2023/08/28 10:10:47;;;;;;;7.57;2.20;;;20.60;99.90;;;;;;5022691;28;20016;-84
2023/08/28 10:13:15;;;;;;;7.10;2.22;;;20.50;99.90;;;;;;5019301;28;20105;-82
2023/08/28 10:16:00;;;;;;;7.07;1.80;;;20.40;99.90;;;;;;5021325;28;20021;-82
2023/08/28 10:18:38;;;;;;;4.75;1.70;;;20.40;99.90;;;;;;5009088;28;20535;-83
2023/08/28 10:21:07;;;;;;;;;;;20.30;99.90;;;;;;5028176;28;20030;-83
2023/08/28 10:23:38;;;;;;;4.82;2.03;;;20.10;99.90;;;;;;5030409;28;19920;-83
2023/08/28 10:26:06;;;;;;;2.40;1.60;;;19.90;99.90;;;;;;5030614;28;20103;-83
2023/08/28 10:28:32;;;;;;;3.80;2.00;;;20.00;99.90;;;;;;5012869;28;20028;-82
2023/08/28 10:30:59;;;;;;;6.05;2.10;;;20.20;99.90;;;;;;5029314;28;20045;-83
2023/08/28 10:33:25;;;;;;;4.90;2.00;;;20.30;99.90;;;;;;5029573;28;20473;-83
2023/08/28 10:35:53;;;;;;;5.32;1.85;;;20.40;99.90;;;;;;5029444;28;20033;-85
2023/08/28 10:38:23;;;;;;;5.05;2.00;;;20.60;99.90;;;;;;5029403;28;20389;-83
2023/08/28 10:40:51;;;;;;;4.20;1.80;;;20.50;99.90;;;;;;5029183;28;20423;-84
2023/08/28 10:43:21;;;;;;;3.22;1.80;;;20.60;99.90;;;;;;5029133;28;20030;-84
2023/08/28 10:45:49;;;;;;;5.72;1.90;;;20.60;99.90;;;;;;5027981;28;20036;-83
2023/08/28 10:48:17;;;;;;;3.80;1.75;;;20.60;99.90;;;;;;5026933;28;20038;-85
2023/08/28 10:50:44;;;;;;;4.53;1.70;;;20.60;99.90;;;;;;5019333;28;20112;-89
2023/08/28 10:53:15;;;;;;;5.07;2.03;;;20.30;99.90;;;;;;5007473;28;20053;-83
2023/08/28 10:55:54;;;;;;;4.28;2.10;;;20.30;99.90;;;;;;5027927;28;20432;-84
2023/08/28 10:58:21;;;;;;;3.22;2.05;;;20.40;99.90;;;;;;5019421;28;20029;-83
2023/08/28 11:00:47;;;;;;;5.97;2.25;;;20.60;99.90;;;;;;5026341;28;20079;-83
2023/08/28 11:03:17;;;;;;;6.93;2.40;;;20.90;99.90;;;;;;5010002;28;20045;-83
2023/08/28 11:05:44;;;;;;;5.88;2.33;;;20.80;99.90;;;;;;5023024;28;20028;-84
2023/08/28 11:08:11;;;;;;;3.25;1.90;;;21.00;99.90;;;;;;5028198;28;20398;-85
2023/08/28 11:10:44;;;;;;;5.50;2.17;;;21.30;99.90;;;;;;5028115;28;20021;-83
2023/08/28 11:13:23;;;;;;;8.20;2.40;;;21.50;99.90;;;;;;5028133;28;20456;-82
2023/08/28 11:15:50;;;;;;;5.35;1.98;;;21.40;99.90;;;;;;5009150;28;20080;-82
2023/08/28 11:18:30;;;;;;;5.70;2.05;;;21.40;99.90;;;;;;5025726;28;20068;-86
2023/08/28 11:21:06;;;;;;;4.82;2.10;;;21.20;99.90;;;;;;5023209;28;20083;-83
2023/08/28 11:23:39;;;;;;;7.38;2.20;;;21.20;99.90;;;;;;5000504;28;20561;-83
2023/08/28 11:26:26;;;;;;;9.95;2.53;;;21.00;99.90;;;;;;5027078;28;20040;-84
2023/08/28 11:28:52;;;;;;;6.22;1.95;;;20.90;99.90;;;;;;5028882;28;20028;-84
2023/08/28 11:31:21;;;;;;;2.42;1.55;;;20.90;99.90;;;;;;5018312;28;20104;-86
2023/08/28 11:33:54;;;;;;;3.20;1.52;;;20.90;99.90;;;;;;5022239;28;20113;-83
2023/08/28 11:36:21;;;;;;;4.50;1.65;;;21.20;99.90;;;;;;5028686;28;20060;-83
2023/08/28 11:38:48;;;;;;;3.85;1.85;;;21.40;99.90;;;;;;5028538;28;20105;-86
2023/08/28 11:41:14;;;;;;;3.58;1.60;;;21.40;99.90;;;;;;5028198;28;20101;-82
2023/08/28 11:43:42;;;;;;;7.22;2.00;;;21.70;99.90;;;;;;5029245;28;20033;-83
2023/08/28 11:46:12;;;;;;;6.10;2.10;;;21.70;99.90;;;;;;5029445;28;20084;-82
2023/08/28 11:48:42;;;;;;;3.92;1.67;;;21.70;99.90;;;;;;5021024;28;20034;-84
2023/08/28 11:51:08;;;;;;;3.85;1.90;;;21.70;99.90;;;;;;5029596;28;20100;-83
2023/08/28 11:53:42;;;;;;;6.05;1.63;;;21.60;99.90;;;;;;5028173;28;20116;-82
2023/08/28 11:56:09;;;;;;;2.38;1.60;;;21.60;99.90;;;;;;5029257;28;20028;-81
2023/08/28 11:58:38;;;;;;;4.40;1.73;;;21.70;99.90;;;;;;5028403;28;20497;-81
2023/08/28 12:01:07;;;;;;;2.53;1.60;;;21.80;99.90;;;;;;5028255;28;20402;-82
2023/08/28 12:03:33;;;;;;;3.67;1.65;;;21.80;99.90;;;;;;5027821;28;20037;-81
2023/08/28 12:06:06;;;;;;;2.30;1.50;;;21.80;99.90;;;;;;5014245;28;20379;-81
2023/08/28 12:08:33;;;;;;;3.65;1.60;;;21.90;99.90;;;;;;5008342;28;20358;-81
2023/08/28 12:10:59;;;;;;;2.60;1.60;;;21.60;99.90;;;;;;5007243;28;20030;-81
2023/08/28 12:13:25;;;;;;;2.95;1.50;;;21.50;99.90;;;;;;5008322;28;20105;-82
2023/08/28 12:15:50;;;;;;;3.25;1.70;;;21.60;99.90;;;;;;5008501;28;20601;-81
2023/08/28 12:18:16;;;;;;;3.30;1.35;;;21.70;99.90;;;;;;5022364;28;20511;-82
2023/08/28 12:20:42;;;;;;;6.80;2.10;;;21.80;99.90;;;;;;5028076;28;20029;-81
2023/08/28 12:23:11;;;;;;;3.15;1.63;;;21.90;99.90;;;;;;5002225;28;20061;-82
2023/08/28 12:25:39;;;;;;;2.28;1.58;;;22.00;99.90;;;;;;5011285;28;20404;-81
2023/08/28 12:28:10;;;;;;;2.00;1.55;;;21.70;99.90;;;;;;5028215;28;20556;-81
2023/08/28 12:30:39;;;;;;;4.57;1.83;;;21.60;99.90;;;;;;5027597;28;20022;-82
2023/08/28 12:33:05;;;;;;;2.47;1.50;;;21.70;99.90;;;;;;5027725;28;20026;-80
2023/08/28 12:35:41;;;;;;;5.40;1.90;;;21.80;99.90;;;;;;5027832;28;20344;-81
2023/08/28 12:38:08;;;;;;;7.70;1.88;;;21.70;99.90;;;;;;5019723;28;20444;-81
2023/08/28 12:40:40;;;;;;;5.75;1.92;;;21.50;99.90;;;;;;5030409;28;20060;-82
2023/08/28 12:43:10;;;;;;;3.58;1.98;;;21.50;99.90;;;;;;5031292;28;20124;-82
2023/08/28 12:45:35;;;;;;;5.03;1.85;;;21.60;99.90;;;;;;5010216;28;20040;-81
2023/08/28 12:48:02;;;;;;;5.00;1.90;;;21.60;99.90;;;;;;5031550;28;20034;-82
2023/08/28 12:50:28;;;;;;;5.20;1.83;;;21.40;99.90;;;;;;5031374;28;20385;-81